MSC Suez — HPMS — position and weather

sailwx.info

Track history (hours):
 
Tides and Currents Weather Stations Pressure Air Temp Water Temp Dewpoint Dewpoint Depression Visibility Wind Speed Wind Dir Waves Ship Positions

MSC Suez

Last reported at 2014-Jul-29 07:22 UTC. Time now 2014-Jul-30 23:25 UTC.
Position N 39°35' W 011°45'.

Length 237 m; draft 11.3 m.

Type: Ship (hazmat cat D). MMSI: 355289000.

Date/timePositionNaut miles runAvg speedWind from/ knotsBaromVisibWave heightAir tempDewpointWater temp
2014-Jul-29 07:22N 39°35' W 011°45'1315.8
2014-Jul-29 06:33N 39°48' W 011°41'1211.7
2014-Jul-29 05:33N 39°59' W 011°37'4911.5
2014-Jul-29 01:19N 40°46' W 011°21'1212.0
2014-Jul-29 00:19N 40°58' W 011°17'912.4
2014-Jul-28 23:33N 41°07' W 011°13'1212.3
2014-Jul-28 22:33N 41°19' W 011°10'64914.7
2014-Jul-27 02:22N 50°02' W 001°59'1619.6
2014-Jul-27 01:33N 49°55' W 001°36'2019.8
2014-Jul-27 00:32N 49°48' W 001°07'1817.9
2014-Jul-26 23:33N 49°41' W 000°41'1616.2
2014-Jul-26 22:34N 49°34' W 000°19'1514.8
2014-Jul-26 21:34N 49°30' E 000°03'4 4.4
2014-Jul-26 20:33N 49°28' E 000°09'0 0.0
2014-Jul-26 19:33N 49°28' E 000°09'0 0.0
2014-Jul-26 18:33N 49°28' E 000°09'0 0.0
2014-Jul-26 17:33N 49°28' E 000°09'0 0.0
2014-Jul-26 16:33N 49°28' E 000°09'0 0.0
2014-Jul-26 15:33N 49°28' E 000°09'0 0.0
2014-Jul-26 14:33N 49°28' E 000°09'0 0.0
2014-Jul-26 13:33N 49°28' E 000°09'0 0.0
2014-Jul-26 12:33N 49°28' E 000°09'0 0.0
2014-Jul-26 11:33N 49°28' E 000°09'0 0.0
2014-Jul-26 10:33N 49°28' E 000°09'0 0.1
2014-Jul-26 09:33N 49°28' E 000°09'8 8.4
2014-Jul-26 08:33N 49°31' W 000°03'1010.2
2014-Jul-26 07:33N 49°40' W 000°10'1111.4
2014-Jul-26 06:33N 49°51' W 000°10'1514.9
2014-Jul-26 05:33N 50°06' W 000°10'2017.4
2014-Jul-26 04:25N 50°25' W 000°03'1517.5
2014-Jul-26 03:33N 50°32' E 000°18'1818.1
2014-Jul-26 02:33N 50°40' E 000°44'1717.1
2014-Jul-26 01:33N 50°51' E 001°04'1615.6
2014-Jul-26 00:33N 51°02' E 001°23'1414.0
2014-Jul-25 23:33N 51°12' E 001°38'1515.5
2014-Jul-25 22:33N 51°27' E 001°45'1717.5
2014-Jul-25 21:33N 51°44' E 001°44'1212.5
2014-Jul-25 20:33N 51°55' E 001°33'9 8.9
2014-Jul-25 19:31N 51°57' E 001°19'0 0.1
2014-Jul-25 18:31N 51°57' E 001°19'0 0.0
2014-Jul-25 17:31N 51°57' E 001°19'0 0.0
2014-Jul-25 16:31N 51°57' E 001°19'0 0.0
2014-Jul-25 15:31N 51°57' E 001°19'0 0.0
2014-Jul-25 14:31N 51°57' E 001°19'0 0.0
2014-Jul-25 13:31N 51°57' E 001°19'0 0.0
2014-Jul-25 12:31N 51°57' E 001°19'0 0.0
2014-Jul-25 11:32N 51°57' E 001°19'0 0.0
2014-Jul-25 10:32N 51°57' E 001°19'1 0.7
2014-Jul-25 09:33N 51°56' E 001°19'10 9.7
2014-Jul-25 08:33N 51°53' E 001°34'6 6.3
2014-Jul-25 07:34N 51°51' E 001°43'4 3.7
2014-Jul-25 06:33N 51°49' E 001°48'1413.7
2014-Jul-25 05:33N 51°35' E 001°51'2 1.8
2014-Jul-25 04:33N 51°34' E 001°53'1 0.7
2014-Jul-25 03:33N 51°34' E 001°54'0 0.5
2014-Jul-25 02:33N 51°34' E 001°54'1 1.0
2014-Jul-25 01:33N 51°33' E 001°54'1211.9
2014-Jul-25 00:34N 51°24' E 002°06'1616.0
2014-Jul-24 23:34N 51°23' E 002°31'1514.8
2014-Jul-24 22:34N 51°22' E 002°55'1514.6
2014-Jul-24 21:34N 51°24' E 003°18'1212.1
2014-Jul-24 20:34N 51°26' E 003°37'1111.2
2014-Jul-24 19:34N 51°21' E 003°54'1110.7
2014-Jul-24 18:33N 51°23' E 004°10'5 5.1
2014-Jul-24 17:33N 51°21' E 004°17'2 1.7
2014-Jul-24 16:33N 51°19' E 004°19'1 0.8
2014-Jul-24 15:28N 51°20' E 004°20'0 0.0
2014-Jul-24 14:31N 51°20' E 004°20'0 0.0
2014-Jul-24 13:31N 51°20' E 004°20'0 0.0
2014-Jul-24 12:31N 51°20' E 004°20'0 0.0
2014-Jul-24 11:31N 51°20' E 004°20'0 0.0
2014-Jul-24 10:31N 51°20' E 004°20'0 0.0
2014-Jul-24 09:31N 51°20' E 004°20'0 0.0
2014-Jul-24 08:28N 51°20' E 004°20'0 0.0
2014-Jul-24 07:31N 51°20' E 004°20'0 0.0
2014-Jul-24 06:28N 51°20' E 004°20'0 0.0
2014-Jul-24 05:31N 51°20' E 004°20'0 0.0
2014-Jul-24 04:31N 51°20' E 004°20'0 0.0
2014-Jul-24 03:31N 51°20' E 004°20'0 0.0
2014-Jul-24 02:31N 51°20' E 004°20'0 0.0
2014-Jul-24 01:31N 51°20' E 004°20'0 0.0
2014-Jul-24 00:28N 51°20' E 004°20'0 0.0
2014-Jul-23 23:31N 51°20' E 004°20'0 0.0
2014-Jul-23 22:31N 51°20' E 004°20'0 0.0
2014-Jul-23 21:31N 51°20' E 004°20'0 0.0
2014-Jul-23 20:28N 51°20' E 004°20'0 0.0
2014-Jul-23 19:31N 51°20' E 004°20'0 0.0
2014-Jul-23 18:31N 51°20' E 004°20'0 0.0
2014-Jul-23 17:31N 51°20' E 004°20'0 0.0
2014-Jul-23 16:28N 51°20' E 004°20'0 0.0
2014-Jul-23 15:31N 51°20' E 004°20'0 0.0
2014-Jul-23 14:31N 51°20' E 004°20'0 0.0
2014-Jul-23 13:31N 51°20' E 004°20'0 0.0
2014-Jul-23 12:31N 51°20' E 004°20'0 0.0
2014-Jul-23 11:28N 51°20' E 004°20'0 0.0
2014-Jul-23 10:31N 51°20' E 004°20'0 0.0
2014-Jul-23 09:31N 51°20' E 004°20'0 0.0
2014-Jul-23 08:34N 51°20' E 004°20'2 2.4
2014-Jul-23 07:34N 51°21' E 004°17'0 0.1
2014-Jul-23 06:33N 51°21' E 004°17'7 6.7
2014-Jul-23 05:34N 51°22' E 004°06'9 8.8
2014-Jul-23 04:34N 51°21' E 003°52'1211.6
2014-Jul-23 03:33N 51°26' E 003°35'1212.4
2014-Jul-23 02:33N 51°25' E 003°16'9 9.5
2014-Jul-23 01:33N 51°31' E 003°04'1514.5
2014-Jul-23 00:33N 51°44' E 003°15'1312.9
2014-Jul-22 23:34N 51°57' E 003°18'1717.2
2014-Jul-22 22:33N 52°14' E 003°24'1615.6
2014-Jul-22 21:33N 52°29' E 003°27'1616.0
2014-Jul-22 20:34N 52°43' E 003°39'1817.4
2014-Jul-22 19:32N 52°57' E 003°58'1717.1
2014-Jul-22 18:34N 53°08' E 004°19'1716.9
2014-Jul-22 17:34N 53°23' E 004°31'1616.5
2014-Jul-22 16:34N 53°39' E 004°40'1616.2
2014-Jul-22 15:34N 53°54' E 004°49'1616.2
2014-Jul-22 14:34N 54°09' E 004°60'1616.4
2014-Jul-22 13:34N 54°24' E 005°12'1616.5
2014-Jul-22 12:34N 54°38' E 005°25'1716.7
2014-Jul-22 11:34N 54°52' E 005°40'1716.7
2014-Jul-22 10:33N 55°07' E 005°55'19715.8
2014-Jul-21 22:05N 57°41' E 009°36'916.2
2014-Jul-21 21:31N 57°44' E 009°53'1616.1
2014-Jul-21 20:33N 57°47' E 010°21'416.0
2014-Jul-21 20:18N 57°48' E 010°29'1115.4
2014-Jul-21 19:34N 57°47' E 010°50'1615.9
2014-Jul-21 18:34N 57°35' E 011°11'1515.3
2014-Jul-21 17:34N 57°23' E 011°28'1615.9
2014-Jul-21 16:33N 57°08' E 011°39'1615.5
2014-Jul-21 15:33N 56°54' E 011°48'1514.3
2014-Jul-21 14:33N 56°39' E 011°48'1515.5
2014-Jul-21 13:34N 56°26' E 011°34'1615.9
2014-Jul-21 12:33N 56°12' E 011°19'1716.7
2014-Jul-21 11:33N 55°59' E 011°02'4515.1
2014-Jul-21 08:34N 55°13' E 011°06'1717.0
2014-Jul-21 07:34N 54°57' E 010°58'1615.8
2014-Jul-21 06:34N 54°41' E 010°55'1817.8
2014-Jul-21 05:34N 54°33' E 011°22'1717.3
2014-Jul-21 04:34N 54°27' E 011°49'1414.2
2014-Jul-21 03:33N 54°32' E 012°12'1616.1
2014-Jul-21 02:34N 54°43' E 012°32'1616.5
2014-Jul-21 01:34N 54°50' E 012°58'1616.1
2014-Jul-21 00:34N 54°56' E 013°24'1616.3
2014-Jul-20 23:34N 55°01' E 013°51'1615.5
2014-Jul-20 22:34N 55°11' E 014°13'1616.4
2014-Jul-20 21:34N 55°24' E 014°31'1615.9
2014-Jul-20 20:34N 55°33' E 014°54'1616.4
2014-Jul-20 19:34N 55°41' E 015°19'1716.7
2014-Jul-20 18:34N 55°49' E 015°45'1716.7
2014-Jul-20 17:34N 55°57' E 016°11'1716.5
2014-Jul-20 16:34N 56°06' E 016°36'1716.5
2014-Jul-20 15:33N 56°16' E 017°00'1616.4
2014-Jul-20 14:34N 56°25' E 017°23'1616.4
2014-Jul-20 13:34N 56°35' E 017°47'1616.4
2014-Jul-20 12:33N 56°45' E 018°11'1616.2
2014-Jul-20 11:34N 56°56' E 018°32'1616.2
2014-Jul-20 10:34N 57°09' E 018°50'3316.3
2014-Jul-20 08:34N 57°36' E 019°25'1616.4
2014-Jul-20 07:34N 57°49' E 019°43'1919.2
2014-Jul-20 06:33N 58°05' E 020°05'2119.5
2014-Jul-20 05:29N 58°21' E 020°29'1818.4
2014-Jul-20 04:31N 58°36' E 020°49'6616.5
2014-Jul-20 00:31N 59°25' E 022°15'1616.1
2014-Jul-19 23:32N 59°32' E 022°42'1616.7
2014-Jul-19 22:34N 59°37' E 023°13'1716.7
2014-Jul-19 21:33N 59°42' E 023°45'1716.7
2014-Jul-19 20:34N 59°46' E 024°17'1716.8
2014-Jul-19 19:34N 59°50' E 024°49'1716.9
2014-Jul-19 18:34N 59°53' E 025°23'1716.7
2014-Jul-19 17:34N 59°56' E 025°55'1716.5
2014-Jul-19 16:34N 60°00' E 026°27'1616.1
2014-Jul-19 15:33N 59°59' E 026°59'1716.3
2014-Jul-19 14:33N 60°07' E 027°29'1615.5
2014-Jul-19 13:30N 60°10' E 028°01'  
Track history (hours):
 
Tides and Currents Weather Stations Pressure Air Temp Water Temp Dewpoint Dewpoint Depression Visibility Wind Speed Wind Dir Waves Ship Positions

MSC Suez

Last reported at 2014-Jul-29 07:22 UTC. Time now 2014-Jul-30 23:25 UTC.
Position N 39°35' W 011°45'.

Length 237 m; draft 11.3 m.

Type: Ship (hazmat cat D). MMSI: 355289000.

Date/timePositionNaut miles runAvg speedWind from/ knotsBaromVisibWave heightAir tempDewpointWater temp
2014-Jul-29 07:22N 39°35' W 011°45'1315.8
2014-Jul-29 06:33N 39°48' W 011°41'1211.7
2014-Jul-29 05:33N 39°59' W 011°37'4911.5
2014-Jul-29 01:19N 40°46' W 011°21'1212.0
2014-Jul-29 00:19N 40°58' W 011°17'912.4
2014-Jul-28 23:33N 41°07' W 011°13'1212.3
2014-Jul-28 22:33N 41°19' W 011°10'64914.7
2014-Jul-27 02:22N 50°02' W 001°59'1619.6
2014-Jul-27 01:33N 49°55' W 001°36'2019.8
2014-Jul-27 00:32N 49°48' W 001°07'1817.9
2014-Jul-26 23:33N 49°41' W 000°41'1616.2
2014-Jul-26 22:34N 49°34' W 000°19'1514.8
2014-Jul-26 21:34N 49°30' E 000°03'4 4.4
2014-Jul-26 20:33N 49°28' E 000°09'0 0.0
2014-Jul-26 19:33N 49°28' E 000°09'0 0.0
2014-Jul-26 18:33N 49°28' E 000°09'0 0.0
2014-Jul-26 17:33N 49°28' E 000°09'0 0.0
2014-Jul-26 16:33N 49°28' E 000°09'0 0.0
2014-Jul-26 15:33N 49°28' E 000°09'0 0.0
2014-Jul-26 14:33N 49°28' E 000°09'0 0.0
2014-Jul-26 13:33N 49°28' E 000°09'0 0.0
2014-Jul-26 12:33N 49°28' E 000°09'0 0.0
2014-Jul-26 11:33N 49°28' E 000°09'0 0.0
2014-Jul-26 10:33N 49°28' E 000°09'0 0.1
2014-Jul-26 09:33N 49°28' E 000°09'8 8.4
2014-Jul-26 08:33N 49°31' W 000°03'1010.2
2014-Jul-26 07:33N 49°40' W 000°10'1111.4
2014-Jul-26 06:33N 49°51' W 000°10'1514.9
2014-Jul-26 05:33N 50°06' W 000°10'2017.4
2014-Jul-26 04:25N 50°25' W 000°03'1517.5
2014-Jul-26 03:33N 50°32' E 000°18'1818.1
2014-Jul-26 02:33N 50°40' E 000°44'1717.1
2014-Jul-26 01:33N 50°51' E 001°04'1615.6
2014-Jul-26 00:33N 51°02' E 001°23'1414.0
2014-Jul-25 23:33N 51°12' E 001°38'1515.5
2014-Jul-25 22:33N 51°27' E 001°45'1717.5
2014-Jul-25 21:33N 51°44' E 001°44'1212.5
2014-Jul-25 20:33N 51°55' E 001°33'9 8.9
2014-Jul-25 19:31N 51°57' E 001°19'0 0.1
2014-Jul-25 18:31N 51°57' E 001°19'0 0.0
2014-Jul-25 17:31N 51°57' E 001°19'0 0.0
2014-Jul-25 16:31N 51°57' E 001°19'0 0.0
2014-Jul-25 15:31N 51°57' E 001°19'0 0.0
2014-Jul-25 14:31N 51°57' E 001°19'0 0.0
2014-Jul-25 13:31N 51°57' E 001°19'0 0.0
2014-Jul-25 12:31N 51°57' E 001°19'0 0.0
2014-Jul-25 11:32N 51°57' E 001°19'0 0.0
2014-Jul-25 10:32N 51°57' E 001°19'1 0.7
2014-Jul-25 09:33N 51°56' E 001°19'10 9.7
2014-Jul-25 08:33N 51°53' E 001°34'6 6.3
2014-Jul-25 07:34N 51°51' E 001°43'4 3.7
2014-Jul-25 06:33N 51°49' E 001°48'1413.7
2014-Jul-25 05:33N 51°35' E 001°51'2 1.8
2014-Jul-25 04:33N 51°34' E 001°53'1 0.7
2014-Jul-25 03:33N 51°34' E 001°54'0 0.5
2014-Jul-25 02:33N 51°34' E 001°54'1 1.0
2014-Jul-25 01:33N 51°33' E 001°54'1211.9
2014-Jul-25 00:34N 51°24' E 002°06'1616.0
2014-Jul-24 23:34N 51°23' E 002°31'1514.8
2014-Jul-24 22:34N 51°22' E 002°55'1514.6
2014-Jul-24 21:34N 51°24' E 003°18'1212.1
2014-Jul-24 20:34N 51°26' E 003°37'1111.2
2014-Jul-24 19:34N 51°21' E 003°54'1110.7
2014-Jul-24 18:33N 51°23' E 004°10'5 5.1
2014-Jul-24 17:33N 51°21' E 004°17'2 1.7
2014-Jul-24 16:33N 51°19' E 004°19'1 0.8
2014-Jul-24 15:28N 51°20' E 004°20'0 0.0
2014-Jul-24 14:31N 51°20' E 004°20'0 0.0
2014-Jul-24 13:31N 51°20' E 004°20'0 0.0
2014-Jul-24 12:31N 51°20' E 004°20'0 0.0
2014-Jul-24 11:31N 51°20' E 004°20'0 0.0
2014-Jul-24 10:31N 51°20' E 004°20'0 0.0
2014-Jul-24 09:31N 51°20' E 004°20'0 0.0
2014-Jul-24 08:28N 51°20' E 004°20'0 0.0
2014-Jul-24 07:31N 51°20' E 004°20'0 0.0
2014-Jul-24 06:28N 51°20' E 004°20'0 0.0
2014-Jul-24 05:31N 51°20' E 004°20'0 0.0
2014-Jul-24 04:31N 51°20' E 004°20'0 0.0
2014-Jul-24 03:31N 51°20' E 004°20'0 0.0
2014-Jul-24 02:31N 51°20' E 004°20'0 0.0
2014-Jul-24 01:31N 51°20' E 004°20'0 0.0
2014-Jul-24 00:28N 51°20' E 004°20'0 0.0
2014-Jul-23 23:31N 51°20' E 004°20'0 0.0
2014-Jul-23 22:31N 51°20' E 004°20'0 0.0
2014-Jul-23 21:31N 51°20' E 004°20'0 0.0
2014-Jul-23 20:28N 51°20' E 004°20'0 0.0
2014-Jul-23 19:31N 51°20' E 004°20'0 0.0
2014-Jul-23 18:31N 51°20' E 004°20'0 0.0
2014-Jul-23 17:31N 51°20' E 004°20'0 0.0
2014-Jul-23 16:28N 51°20' E 004°20'0 0.0
2014-Jul-23 15:31N 51°20' E 004°20'0 0.0
2014-Jul-23 14:31N 51°20' E 004°20'0 0.0
2014-Jul-23 13:31N 51°20' E 004°20'0 0.0
2014-Jul-23 12:31N 51°20' E 004°20'0 0.0
2014-Jul-23 11:28N 51°20' E 004°20'0 0.0
2014-Jul-23 10:31N 51°20' E 004°20'0 0.0
2014-Jul-23 09:31N 51°20' E 004°20'0 0.0
2014-Jul-23 08:34N 51°20' E 004°20'2 2.4
2014-Jul-23 07:34N 51°21' E 004°17'0 0.1
2014-Jul-23 06:33N 51°21' E 004°17'7 6.7
2014-Jul-23 05:34N 51°22' E 004°06'9 8.8
2014-Jul-23 04:34N 51°21' E 003°52'1211.6
2014-Jul-23 03:33N 51°26' E 003°35'1212.4
2014-Jul-23 02:33N 51°25' E 003°16'9 9.5
2014-Jul-23 01:33N 51°31' E 003°04'1514.5
2014-Jul-23 00:33N 51°44' E 003°15'1312.9
2014-Jul-22 23:34N 51°57' E 003°18'1717.2
2014-Jul-22 22:33N 52°14' E 003°24'1615.6
2014-Jul-22 21:33N 52°29' E 003°27'1616.0
2014-Jul-22 20:34N 52°43' E 003°39'1817.4
2014-Jul-22 19:32N 52°57' E 003°58'1717.1
2014-Jul-22 18:34N 53°08' E 004°19'1716.9
2014-Jul-22 17:34N 53°23' E 004°31'1616.5
2014-Jul-22 16:34N 53°39' E 004°40'1616.2
2014-Jul-22 15:34N 53°54' E 004°49'1616.2
2014-Jul-22 14:34N 54°09' E 004°60'1616.4
2014-Jul-22 13:34N 54°24' E 005°12'1616.5
2014-Jul-22 12:34N 54°38' E 005°25'1716.7
2014-Jul-22 11:34N 54°52' E 005°40'1716.7
2014-Jul-22 10:33N 55°07' E 005°55'19715.8
2014-Jul-21 22:05N 57°41' E 009°36'916.2
2014-Jul-21 21:31N 57°44' E 009°53'1616.1
2014-Jul-21 20:33N 57°47' E 010°21'416.0
2014-Jul-21 20:18N 57°48' E 010°29'1115.4
2014-Jul-21 19:34N 57°47' E 010°50'1615.9
2014-Jul-21 18:34N 57°35' E 011°11'1515.3
2014-Jul-21 17:34N 57°23' E 011°28'1615.9
2014-Jul-21 16:33N 57°08' E 011°39'1615.5
2014-Jul-21 15:33N 56°54' E 011°48'1514.3
2014-Jul-21 14:33N 56°39' E 011°48'1515.5
2014-Jul-21 13:34N 56°26' E 011°34'1615.9
2014-Jul-21 12:33N 56°12' E 011°19'1716.7
2014-Jul-21 11:33N 55°59' E 011°02'4515.1
2014-Jul-21 08:34N 55°13' E 011°06'1717.0
2014-Jul-21 07:34N 54°57' E 010°58'1615.8
2014-Jul-21 06:34N 54°41' E 010°55'1817.8
2014-Jul-21 05:34N 54°33' E 011°22'1717.3
2014-Jul-21 04:34N 54°27' E 011°49'1414.2
2014-Jul-21 03:33N 54°32' E 012°12'1616.1
2014-Jul-21 02:34N 54°43' E 012°32'1616.5
2014-Jul-21 01:34N 54°50' E 012°58'1616.1
2014-Jul-21 00:34N 54°56' E 013°24'1616.3
2014-Jul-20 23:34N 55°01' E 013°51'1615.5
2014-Jul-20 22:34N 55°11' E 014°13'1616.4
2014-Jul-20 21:34N 55°24' E 014°31'1615.9
2014-Jul-20 20:34N 55°33' E 014°54'1616.4
2014-Jul-20 19:34N 55°41' E 015°19'1716.7
2014-Jul-20 18:34N 55°49' E 015°45'1716.7
2014-Jul-20 17:34N 55°57' E 016°11'1716.5
2014-Jul-20 16:34N 56°06' E 016°36'1716.5
2014-Jul-20 15:33N 56°16' E 017°00'1616.4
2014-Jul-20 14:34N 56°25' E 017°23'1616.4
2014-Jul-20 13:34N 56°35' E 017°47'1616.4
2014-Jul-20 12:33N 56°45' E 018°11'1616.2
2014-Jul-20 11:34N 56°56' E 018°32'1616.2
2014-Jul-20 10:34N 57°09' E 018°50'3316.3
2014-Jul-20 08:34N 57°36' E 019°25'1616.4
2014-Jul-20 07:34N 57°49' E 019°43'1919.2
2014-Jul-20 06:33N 58°05' E 020°05'2119.5
2014-Jul-20 05:29N 58°21' E 020°29'1818.4
2014-Jul-20 04:31N 58°36' E 020°49'6616.5
2014-Jul-20 00:31N 59°25' E 022°15'1616.1
2014-Jul-19 23:32N 59°32' E 022°42'1616.7
2014-Jul-19 22:34N 59°37' E 023°13'1716.7
2014-Jul-19 21:33N 59°42' E 023°45'1716.7
2014-Jul-19 20:34N 59°46' E 024°17'1716.8
2014-Jul-19 19:34N 59°50' E 024°49'1716.9
2014-Jul-19 18:34N 59°53' E 025°23'1716.7
2014-Jul-19 17:34N 59°56' E 025°55'1716.5
2014-Jul-19 16:34N 60°00' E 026°27'1616.1
2014-Jul-19 15:33N 59°59' E 026°59'1716.3
2014-Jul-19 14:33N 60°07' E 027°29'1615.5
2014-Jul-19 13:30N 60°10' E 028°01'  

Dump ship's entire track history